sensor_id;sensor_type;location;lat;lon;timestamp;P1;durP1;ratioP1;P2;durP2;ratioP2
19406;SDS011;9839;53.364;-1.204;2023-07-08T00:01:36;4.22;;;2.80;;
19406;SDS011;9839;53.364;-1.204;2023-07-08T00:04:02;6.05;;;3.25;;
19406;SDS011;9839;53.364;-1.204;2023-07-08T00:06:28;5.53;;;3.10;;
19406;SDS011;9839;53.364;-1.204;2023-07-08T00:08:54;7.05;;;3.15;;
19406;SDS011;9839;53.364;-1.204;2023-07-08T00:11:20;8.27;;;3.10;;
19406;SDS011;9839;53.364;-1.204;2023-07-08T00:13:46;9.18;;;2.90;;
19406;SDS011;9839;53.364;-1.204;2023-07-08T00:16:12;6.50;;;3.53;;
19406;SDS011;9839;53.364;-1.204;2023-07-08T00:18:39;6.53;;;3.30;;
19406;SDS011;9839;53.364;-1.204;2023-07-08T00:21:08;7.25;;;3.10;;
19406;SDS011;9839;53.364;-1.204;2023-07-08T00:23:35;7.75;;;3.47;;
19406;SDS011;9839;53.364;-1.204;2023-07-08T00:26:01;7.97;;;3.35;;
19406;SDS011;9839;53.364;-1.204;2023-07-08T00:28:27;7.40;;;2.95;;
19406;SDS011;9839;53.364;-1.204;2023-07-08T00:30:52;6.13;;;3.05;;
19406;SDS011;9839;53.364;-1.204;2023-07-08T00:33:19;5.70;;;3.33;;
19406;SDS011;9839;53.364;-1.204;2023-07-08T00:35:44;6.60;;;2.65;;
19406;SDS011;9839;53.364;-1.204;2023-07-08T00:38:14;6.00;;;2.97;;
19406;SDS011;9839;53.364;-1.204;2023-07-08T00:40:50;5.65;;;3.08;;
19406;SDS011;9839;53.364;-1.204;2023-07-08T00:43:17;6.68;;;3.15;;
19406;SDS011;9839;53.364;-1.204;2023-07-08T00:45:47;9.75;;;3.28;;
19406;SDS011;9839;53.364;-1.204;2023-07-08T00:48:24;7.75;;;3.15;;
19406;SDS011;9839;53.364;-1.204;2023-07-08T00:50:52;7.10;;;3.63;;
19406;SDS011;9839;53.364;-1.204;2023-07-08T00:53:35;6.80;;;3.42;;
19406;SDS011;9839;53.364;-1.204;2023-07-08T00:56:06;12.18;;;3.92;;
19406;SDS011;9839;53.364;-1.204;2023-07-08T00:58:38;8.82;;;3.13;;
19406;SDS011;9839;53.364;-1.204;2023-07-08T01:01:05;6.50;;;3.70;;
19406;SDS011;9839;53.364;-1.204;2023-07-08T01:03:33;9.07;;;4.50;;
19406;SDS011;9839;53.364;-1.204;2023-07-08T01:06:04;4.63;;;3.15;;
19406;SDS011;9839;53.364;-1.204;2023-07-08T01:08:31;6.53;;;3.20;;
19406;SDS011;9839;53.364;-1.204;2023-07-08T01:10:59;4.57;;;2.90;;
19406;SDS011;9839;53.364;-1.204;2023-07-08T01:13:26;6.57;;;3.25;;
19406;SDS011;9839;53.364;-1.204;2023-07-08T01:15:54;6.00;;;3.60;;
19406;SDS011;9839;53.364;-1.204;2023-07-08T01:18:20;4.90;;;3.10;;
19406;SDS011;9839;53.364;-1.204;2023-07-08T01:20:46;6.38;;;2.90;;
19406;SDS011;9839;53.364;-1.204;2023-07-08T01:23:13;8.30;;;3.50;;
19406;SDS011;9839;53.364;-1.204;2023-07-08T01:25:39;9.30;;;4.65;;
19406;SDS011;9839;53.364;-1.204;2023-07-08T01:28:07;5.22;;;2.67;;
19406;SDS011;9839;53.364;-1.204;2023-07-08T01:30:32;9.80;;;3.88;;
19406;SDS011;9839;53.364;-1.204;2023-07-08T01:32:59;5.07;;;3.10;;
19406;SDS011;9839;53.364;-1.204;2023-07-08T01:35:28;6.18;;;3.10;;
19406;SDS011;9839;53.364;-1.204;2023-07-08T01:37:56;9.40;;;3.70;;
19406;SDS011;9839;53.364;-1.204;2023-07-08T01:42:54;4.35;;;3.05;;
19406;SDS011;9839;53.364;-1.204;2023-07-08T01:45:21;5.97;;;3.17;;
19406;SDS011;9839;53.364;-1.204;2023-07-08T01:47:51;6.68;;;3.05;;
19406;SDS011;9839;53.364;-1.204;2023-07-08T01:50:20;6.80;;;2.97;;
19406;SDS011;9839;53.364;-1.204;2023-07-08T01:52:47;8.98;;;3.67;;
19406;SDS011;9839;53.364;-1.204;2023-07-08T01:55:13;7.57;;;3.60;;
19406;SDS011;9839;53.364;-1.204;2023-07-08T01:57:39;6.28;;;3.13;;
19406;SDS011;9839;53.364;-1.204;2023-07-08T02:00:04;9.05;;;3.58;;
19406;SDS011;9839;53.364;-1.204;2023-07-08T02:02:31;7.72;;;3.65;;
19406;SDS011;9839;53.364;-1.204;2023-07-08T02:04:56;6.10;;;3.17;;
19406;SDS011;9839;53.364;-1.204;2023-07-08T02:07:21;5.68;;;3.15;;
19406;SDS011;9839;53.364;-1.204;2023-07-08T02:09:47;10.65;;;3.65;;
19406;SDS011;9839;53.364;-1.204;2023-07-08T02:12:12;8.63;;;3.60;;
19406;SDS011;9839;53.364;-1.204;2023-07-08T02:14:38;8.90;;;3.78;;
19406;SDS011;9839;53.364;-1.204;2023-07-08T02:17:03;7.82;;;3.50;;
19406;SDS011;9839;53.364;-1.204;2023-07-08T02:19:30;7.80;;;3.35;;
19406;SDS011;9839;53.364;-1.204;2023-07-08T02:21:56;6.25;;;3.00;;
19406;SDS011;9839;53.364;-1.204;2023-07-08T02:24:22;9.45;;;3.80;;
19406;SDS011;9839;53.364;-1.204;2023-07-08T02:26:48;14.35;;;3.72;;
19406;SDS011;9839;53.364;-1.204;2023-07-08T02:29:14;13.95;;;3.90;;
19406;SDS011;9839;53.364;-1.204;2023-07-08T02:31:40;7.95;;;3.97;;
19406;SDS011;9839;53.364;-1.204;2023-07-08T02:34:05;8.60;;;3.28;;
19406;SDS011;9839;53.364;-1.204;2023-07-08T02:36:32;7.97;;;4.38;;
19406;SDS011;9839;53.364;-1.204;2023-07-08T02:38:59;6.82;;;3.35;;
19406;SDS011;9839;53.364;-1.204;2023-07-08T02:41:24;7.78;;;3.80;;
19406;SDS011;9839;53.364;-1.204;2023-07-08T02:43:50;10.98;;;3.80;;
19406;SDS011;9839;53.364;-1.204;2023-07-08T02:46:15;5.70;;;3.40;;
19406;SDS011;9839;53.364;-1.204;2023-07-08T02:48:40;7.82;;;3.70;;
19406;SDS011;9839;53.364;-1.204;2023-07-08T02:51:06;11.02;;;3.65;;
19406;SDS011;9839;53.364;-1.204;2023-07-08T02:53:33;7.55;;;3.67;;
19406;SDS011;9839;53.364;-1.204;2023-07-08T02:55:59;6.10;;;3.63;;
19406;SDS011;9839;53.364;-1.204;2023-07-08T02:58:25;6.13;;;3.78;;
19406;SDS011;9839;53.364;-1.204;2023-07-08T03:00:51;8.05;;;3.83;;
19406;SDS011;9839;53.364;-1.204;2023-07-08T03:03:20;5.35;;;3.67;;
19406;SDS011;9839;53.364;-1.204;2023-07-08T03:05:55;8.63;;;3.97;;
19406;SDS011;9839;53.364;-1.204;2023-07-08T03:08:22;6.20;;;3.60;;
19406;SDS011;9839;53.364;-1.204;2023-07-08T03:10:47;5.72;;;3.38;;
19406;SDS011;9839;53.364;-1.204;2023-07-08T03:13:14;7.03;;;3.95;;
19406;SDS011;9839;53.364;-1.204;2023-07-08T03:15:40;7.82;;;4.03;;
19406;SDS011;9839;53.364;-1.204;2023-07-08T03:18:05;8.30;;;3.95;;
19406;SDS011;9839;53.364;-1.204;2023-07-08T03:20:33;7.80;;;3.63;;
19406;SDS011;9839;53.364;-1.204;2023-07-08T03:22:58;6.30;;;3.70;;
19406;SDS011;9839;53.364;-1.204;2023-07-08T03:25:24;10.80;;;3.75;;
19406;SDS011;9839;53.364;-1.204;2023-07-08T03:27:49;7.32;;;4.00;;
19406;SDS011;9839;53.364;-1.204;2023-07-08T03:30:15;8.60;;;4.15;;
19406;SDS011;9839;53.364;-1.204;2023-07-08T03:32:40;7.13;;;3.65;;
19406;SDS011;9839;53.364;-1.204;2023-07-08T03:35:07;14.15;;;4.00;;
19406;SDS011;9839;53.364;-1.204;2023-07-08T03:37:33;8.15;;;3.80;;
19406;SDS011;9839;53.364;-1.204;2023-07-08T03:39:58;8.90;;;4.10;;
19406;SDS011;9839;53.364;-1.204;2023-07-08T03:42:24;7.60;;;3.88;;
19406;SDS011;9839;53.364;-1.204;2023-07-08T03:44:49;7.20;;;3.92;;
19406;SDS011;9839;53.364;-1.204;2023-07-08T03:47:15;9.73;;;4.57;;
19406;SDS011;9839;53.364;-1.204;2023-07-08T03:49:40;12.18;;;4.65;;
19406;SDS011;9839;53.364;-1.204;2023-07-08T03:52:07;8.90;;;4.28;;
19406;SDS011;9839;53.364;-1.204;2023-07-08T03:54:40;9.27;;;4.63;;
19406;SDS011;9839;53.364;-1.204;2023-07-08T03:57:06;10.85;;;4.20;;
19406;SDS011;9839;53.364;-1.204;2023-07-08T03:59:31;6.50;;;4.00;;
19406;SDS011;9839;53.364;-1.204;2023-07-08T04:01:57;12.88;;;4.32;;
19406;SDS011;9839;53.364;-1.204;2023-07-08T04:04:22;10.65;;;4.72;;
19406;SDS011;9839;53.364;-1.204;2023-07-08T04:06:48;8.07;;;3.67;;
19406;SDS011;9839;53.364;-1.204;2023-07-08T04:09:15;11.48;;;4.25;;
19406;SDS011;9839;53.364;-1.204;2023-07-08T04:11:41;9.50;;;4.25;;
19406;SDS011;9839;53.364;-1.204;2023-07-08T04:14:09;8.77;;;4.22;;
19406;SDS011;9839;53.364;-1.204;2023-07-08T04:16:55;8.18;;;4.13;;
19406;SDS011;9839;53.364;-1.204;2023-07-08T04:19:22;8.38;;;4.35;;
19406;SDS011;9839;53.364;-1.204;2023-07-08T04:21:48;10.70;;;5.45;;
19406;SDS011;9839;53.364;-1.204;2023-07-08T04:24:14;11.00;;;4.45;;
19406;SDS011;9839;53.364;-1.204;2023-07-08T04:26:41;10.20;;;4.75;;
19406;SDS011;9839;53.364;-1.204;2023-07-08T04:29:14;12.00;;;3.92;;
19406;SDS011;9839;53.364;-1.204;2023-07-08T04:31:41;10.20;;;5.75;;
19406;SDS011;9839;53.364;-1.204;2023-07-08T04:34:07;9.15;;;4.40;;
19406;SDS011;9839;53.364;-1.204;2023-07-08T04:36:33;10.95;;;5.25;;
19406;SDS011;9839;53.364;-1.204;2023-07-08T04:38:59;7.28;;;4.43;;
19406;SDS011;9839;53.364;-1.204;2023-07-08T04:41:25;7.97;;;4.55;;
19406;SDS011;9839;53.364;-1.204;2023-07-08T04:43:51;10.57;;;4.35;;
19406;SDS011;9839;53.364;-1.204;2023-07-08T04:46:27;7.03;;;4.00;;
19406;SDS011;9839;53.364;-1.204;2023-07-08T04:49:00;9.23;;;4.65;;
19406;SDS011;9839;53.364;-1.204;2023-07-08T04:51:28;10.40;;;4.47;;
19406;SDS011;9839;53.364;-1.204;2023-07-08T04:53:54;8.20;;;3.95;;
19406;SDS011;9839;53.364;-1.204;2023-07-08T04:56:19;11.75;;;4.40;;
19406;SDS011;9839;53.364;-1.204;2023-07-08T04:58:45;11.35;;;5.10;;
19406;SDS011;9839;53.364;-1.204;2023-07-08T05:01:10;10.93;;;4.75;;
19406;SDS011;9839;53.364;-1.204;2023-07-08T05:03:36;8.52;;;4.45;;
19406;SDS011;9839;53.364;-1.204;2023-07-08T05:06:01;8.82;;;4.95;;
19406;SDS011;9839;53.364;-1.204;2023-07-08T05:08:27;7.63;;;4.07;;
19406;SDS011;9839;53.364;-1.204;2023-07-08T05:10:52;7.32;;;4.32;;
19406;SDS011;9839;53.364;-1.204;2023-07-08T05:13:18;6.30;;;4.30;;
19406;SDS011;9839;53.364;-1.204;2023-07-08T05:15:43;9.82;;;4.32;;
19406;SDS011;9839;53.364;-1.204;2023-07-08T05:18:09;8.43;;;4.60;;
19406;SDS011;9839;53.364;-1.204;2023-07-08T05:20:34;9.43;;;4.30;;
19406;SDS011;9839;53.364;-1.204;2023-07-08T05:23:01;10.82;;;4.55;;
19406;SDS011;9839;53.364;-1.204;2023-07-08T05:25:31;9.38;;;4.57;;
19406;SDS011;9839;53.364;-1.204;2023-07-08T05:27:57;7.72;;;4.45;;
19406;SDS011;9839;53.364;-1.204;2023-07-08T05:30:22;8.07;;;4.00;;
19406;SDS011;9839;53.364;-1.204;2023-07-08T05:32:48;12.30;;;4.57;;
19406;SDS011;9839;53.364;-1.204;2023-07-08T05:35:13;7.82;;;4.97;;
19406;SDS011;9839;53.364;-1.204;2023-07-08T05:37:39;9.45;;;4.22;;
19406;SDS011;9839;53.364;-1.204;2023-07-08T05:40:05;7.63;;;4.30;;
19406;SDS011;9839;53.364;-1.204;2023-07-08T05:42:32;9.18;;;4.63;;
19406;SDS011;9839;53.364;-1.204;2023-07-08T05:44:58;16.58;;;4.40;;
19406;SDS011;9839;53.364;-1.204;2023-07-08T05:47:23;9.10;;;5.05;;
19406;SDS011;9839;53.364;-1.204;2023-07-08T05:49:49;11.43;;;4.15;;
19406;SDS011;9839;53.364;-1.204;2023-07-08T05:52:14;8.07;;;4.68;;
19406;SDS011;9839;53.364;-1.204;2023-07-08T05:54:40;8.95;;;4.72;;
19406;SDS011;9839;53.364;-1.204;2023-07-08T05:57:08;6.82;;;4.40;;
19406;SDS011;9839;53.364;-1.204;2023-07-08T05:59:35;12.95;;;4.53;;
19406;SDS011;9839;53.364;-1.204;2023-07-08T06:02:02;7.93;;;4.47;;
19406;SDS011;9839;53.364;-1.204;2023-07-08T06:04:28;12.18;;;4.90;;
19406;SDS011;9839;53.364;-1.204;2023-07-08T06:06:53;9.88;;;4.75;;
19406;SDS011;9839;53.364;-1.204;2023-07-08T06:09:19;9.43;;;4.78;;
19406;SDS011;9839;53.364;-1.204;2023-07-08T06:11:44;10.25;;;4.60;;
19406;SDS011;9839;53.364;-1.204;2023-07-08T06:14:10;7.40;;;4.20;;
19406;SDS011;9839;53.364;-1.204;2023-07-08T06:16:35;10.23;;;4.20;;
19406;SDS011;9839;53.364;-1.204;2023-07-08T06:19:00;14.38;;;5.13;;
19406;SDS011;9839;53.364;-1.204;2023-07-08T06:21:26;12.05;;;4.85;;
19406;SDS011;9839;53.364;-1.204;2023-07-08T06:23:51;10.60;;;4.13;;
19406;SDS011;9839;53.364;-1.204;2023-07-08T06:26:17;10.30;;;4.43;;
19406;SDS011;9839;53.364;-1.204;2023-07-08T06:28:42;11.77;;;5.00;;
19406;SDS011;9839;53.364;-1.204;2023-07-08T06:31:08;8.85;;;4.38;;
19406;SDS011;9839;53.364;-1.204;2023-07-08T06:33:33;10.27;;;4.28;;
19406;SDS011;9839;53.364;-1.204;2023-07-08T06:35:58;8.52;;;4.28;;
19406;SDS011;9839;53.364;-1.204;2023-07-08T06:38:24;10.20;;;4.90;;
19406;SDS011;9839;53.364;-1.204;2023-07-08T06:40:49;11.48;;;4.20;;
19406;SDS011;9839;53.364;-1.204;2023-07-08T06:43:15;10.23;;;4.70;;
19406;SDS011;9839;53.364;-1.204;2023-07-08T06:45:41;8.73;;;4.00;;
19406;SDS011;9839;53.364;-1.204;2023-07-08T06:48:06;12.27;;;4.68;;
19406;SDS011;9839;53.364;-1.204;2023-07-08T06:50:32;8.65;;;4.88;;
19406;SDS011;9839;53.364;-1.204;2023-07-08T06:52:57;8.77;;;4.57;;
19406;SDS011;9839;53.364;-1.204;2023-07-08T06:55:23;12.57;;;4.43;;
19406;SDS011;9839;53.364;-1.204;2023-07-08T06:57:48;11.55;;;4.70;;
19406;SDS011;9839;53.364;-1.204;2023-07-08T07:00:14;14.95;;;4.65;;
19406;SDS011;9839;53.364;-1.204;2023-07-08T07:02:39;12.95;;;5.03;;
19406;SDS011;9839;53.364;-1.204;2023-07-08T07:05:05;8.73;;;4.38;;
19406;SDS011;9839;53.364;-1.204;2023-07-08T07:07:31;13.27;;;5.05;;
19406;SDS011;9839;53.364;-1.204;2023-07-08T07:09:56;10.75;;;5.15;;
19406;SDS011;9839;53.364;-1.204;2023-07-08T07:12:23;15.02;;;5.80;;
19406;SDS011;9839;53.364;-1.204;2023-07-08T07:14:49;12.20;;;5.00;;
19406;SDS011;9839;53.364;-1.204;2023-07-08T07:17:17;10.90;;;4.90;;
19406;SDS011;9839;53.364;-1.204;2023-07-08T07:19:43;9.10;;;4.28;;
19406;SDS011;9839;53.364;-1.204;2023-07-08T07:22:09;10.10;;;4.28;;
19406;SDS011;9839;53.364;-1.204;2023-07-08T07:24:34;10.20;;;4.20;;
19406;SDS011;9839;53.364;-1.204;2023-07-08T07:27:00;8.07;;;4.63;;
19406;SDS011;9839;53.364;-1.204;2023-07-08T07:29:25;10.65;;;4.40;;
19406;SDS011;9839;53.364;-1.204;2023-07-08T07:31:51;9.23;;;4.45;;
19406;SDS011;9839;53.364;-1.204;2023-07-08T07:34:16;9.48;;;3.72;;
19406;SDS011;9839;53.364;-1.204;2023-07-08T07:36:42;13.82;;;4.68;;
19406;SDS011;9839;53.364;-1.204;2023-07-08T07:39:07;12.18;;;4.55;;
19406;SDS011;9839;53.364;-1.204;2023-07-08T07:41:33;11.90;;;4.63;;
19406;SDS011;9839;53.364;-1.204;2023-07-08T07:43:58;8.38;;;4.57;;
19406;SDS011;9839;53.364;-1.204;2023-07-08T07:46:24;10.88;;;4.60;;
19406;SDS011;9839;53.364;-1.204;2023-07-08T07:48:49;9.32;;;4.75;;
19406;SDS011;9839;53.364;-1.204;2023-07-08T07:51:15;8.23;;;4.05;;
19406;SDS011;9839;53.364;-1.204;2023-07-08T07:53:40;9.40;;;4.30;;
19406;SDS011;9839;53.364;-1.204;2023-07-08T07:56:06;11.25;;;4.13;;
19406;SDS011;9839;53.364;-1.204;2023-07-08T07:58:32;9.75;;;4.47;;
19406;SDS011;9839;53.364;-1.204;2023-07-08T08:00:57;10.35;;;4.38;;
19406;SDS011;9839;53.364;-1.204;2023-07-08T08:03:23;9.73;;;4.53;;
19406;SDS011;9839;53.364;-1.204;2023-07-08T08:05:49;11.00;;;5.25;;
19406;SDS011;9839;53.364;-1.204;2023-07-08T08:08:15;7.15;;;4.20;;
19406;SDS011;9839;53.364;-1.204;2023-07-08T08:10:42;8.40;;;4.47;;
19406;SDS011;9839;53.364;-1.204;2023-07-08T08:13:08;9.60;;;4.35;;
19406;SDS011;9839;53.364;-1.204;2023-07-08T08:15:33;12.48;;;3.75;;
19406;SDS011;9839;53.364;-1.204;2023-07-08T08:17:58;7.63;;;4.88;;
19406;SDS011;9839;53.364;-1.204;2023-07-08T08:20:24;8.63;;;4.60;;
19406;SDS011;9839;53.364;-1.204;2023-07-08T08:22:50;9.52;;;4.85;;
19406;SDS011;9839;53.364;-1.204;2023-07-08T08:25:17;8.68;;;4.50;;
19406;SDS011;9839;53.364;-1.204;2023-07-08T08:27:43;13.68;;;5.10;;
19406;SDS011;9839;53.364;-1.204;2023-07-08T08:30:09;10.45;;;4.63;;
19406;SDS011;9839;53.364;-1.204;2023-07-08T08:32:34;10.65;;;4.57;;
19406;SDS011;9839;53.364;-1.204;2023-07-08T08:35:00;11.80;;;5.30;;
19406;SDS011;9839;53.364;-1.204;2023-07-08T08:37:26;11.73;;;4.72;;
19406;SDS011;9839;53.364;-1.204;2023-07-08T08:39:51;26.17;;;6.53;;
19406;SDS011;9839;53.364;-1.204;2023-07-08T08:42:20;15.80;;;5.60;;
19406;SDS011;9839;53.364;-1.204;2023-07-08T08:44:49;9.52;;;4.57;;
19406;SDS011;9839;53.364;-1.204;2023-07-08T08:52:41;12.27;;;5.32;;
19406;SDS011;9839;53.364;-1.204;2023-07-08T08:55:10;10.52;;;5.70;;
19406;SDS011;9839;53.364;-1.204;2023-07-08T08:57:41;13.82;;;5.90;;
19406;SDS011;9839;53.364;-1.204;2023-07-08T09:00:11;8.65;;;4.60;;
19406;SDS011;9839;53.364;-1.204;2023-07-08T09:05:18;9.88;;;5.03;;
19406;SDS011;9839;53.364;-1.204;2023-07-08T09:07:54;9.43;;;5.57;;
19406;SDS011;9839;53.364;-1.204;2023-07-08T09:10:42;12.25;;;6.15;;
19406;SDS011;9839;53.364;-1.204;2023-07-08T09:13:22;14.65;;;6.13;;
19406;SDS011;9839;53.364;-1.204;2023-07-08T09:15:54;13.00;;;5.75;;
19406;SDS011;9839;53.364;-1.204;2023-07-08T09:18:27;16.38;;;6.57;;
19406;SDS011;9839;53.364;-1.204;2023-07-08T09:20:57;20.17;;;7.03;;
19406;SDS011;9839;53.364;-1.204;2023-07-08T09:23:28;28.15;;;7.97;;
19406;SDS011;9839;53.364;-1.204;2023-07-08T09:25:59;21.52;;;7.95;;
19406;SDS011;9839;53.364;-1.204;2023-07-08T09:28:41;16.23;;;7.18;;
19406;SDS011;9839;53.364;-1.204;2023-07-08T09:31:10;17.17;;;7.38;;
19406;SDS011;9839;53.364;-1.204;2023-07-08T09:36:43;20.10;;;8.50;;
19406;SDS011;9839;53.364;-1.204;2023-07-08T09:39:14;17.80;;;8.43;;
19406;SDS011;9839;53.364;-1.204;2023-07-08T09:41:43;17.98;;;8.02;;
19406;SDS011;9839;53.364;-1.204;2023-07-08T09:44:26;13.60;;;8.45;;
19406;SDS011;9839;53.364;-1.204;2023-07-08T09:46:58;14.75;;;7.93;;
19406;SDS011;9839;53.364;-1.204;2023-07-08T09:51:52;18.13;;;8.07;;
19406;SDS011;9839;53.364;-1.204;2023-07-08T09:54:19;18.40;;;8.25;;
19406;SDS011;9839;53.364;-1.204;2023-07-08T09:56:54;15.90;;;8.73;;
19406;SDS011;9839;53.364;-1.204;2023-07-08T09:59:21;18.42;;;10.77;;
19406;SDS011;9839;53.364;-1.204;2023-07-08T10:01:49;20.48;;;10.90;;
19406;SDS011;9839;53.364;-1.204;2023-07-08T10:04:14;24.50;;;11.43;;
19406;SDS011;9839;53.364;-1.204;2023-07-08T10:06:42;15.50;;;10.88;;
19406;SDS011;9839;53.364;-1.204;2023-07-08T10:09:12;19.52;;;8.45;;
19406;SDS011;9839;53.364;-1.204;2023-07-08T10:11:46;18.80;;;8.98;;
19406;SDS011;9839;53.364;-1.204;2023-07-08T10:14:25;18.58;;;9.88;;
19406;SDS011;9839;53.364;-1.204;2023-07-08T10:16:52;17.10;;;8.80;;
19406;SDS011;9839;53.364;-1.204;2023-07-08T10:19:19;16.25;;;8.70;;
19406;SDS011;9839;53.364;-1.204;2023-07-08T10:21:55;12.50;;;7.38;;
19406;SDS011;9839;53.364;-1.204;2023-07-08T10:24:40;14.65;;;7.47;;
19406;SDS011;9839;53.364;-1.204;2023-07-08T10:35:21;13.32;;;7.90;;
19406;SDS011;9839;53.364;-1.204;2023-07-08T11:02:01;14.52;;;7.90;;
19406;SDS011;9839;53.364;-1.204;2023-07-08T11:10:07;14.52;;;8.43;;
19406;SDS011;9839;53.364;-1.204;2023-07-08T11:12:48;24.75;;;10.93;;
19406;SDS011;9839;53.364;-1.204;2023-07-08T11:20:58;15.57;;;8.75;;
19406;SDS011;9839;53.364;-1.204;2023-07-08T11:23:36;15.52;;;9.32;;
19406;SDS011;9839;53.364;-1.204;2023-07-08T11:29:23;16.10;;;8.85;;
19406;SDS011;9839;53.364;-1.204;2023-07-08T11:31:51;12.82;;;8.13;;
19406;SDS011;9839;53.364;-1.204;2023-07-08T11:34:18;15.45;;;8.82;;
19406;SDS011;9839;53.364;-1.204;2023-07-08T11:36:44;16.08;;;9.10;;
19406;SDS011;9839;53.364;-1.204;2023-07-08T11:39:28;14.32;;;8.90;;
19406;SDS011;9839;53.364;-1.204;2023-07-08T11:42:02;15.18;;;7.75;;
19406;SDS011;9839;53.364;-1.204;2023-07-08T11:44:51;19.88;;;9.25;;
19406;SDS011;9839;53.364;-1.204;2023-07-08T11:47:41;16.65;;;8.60;;
19406;SDS011;9839;53.364;-1.204;2023-07-08T11:50:24;19.83;;;8.70;;
19406;SDS011;9839;53.364;-1.204;2023-07-08T11:53:00;18.13;;;8.95;;
19406;SDS011;9839;53.364;-1.204;2023-07-08T11:58:15;16.23;;;9.68;;
19406;SDS011;9839;53.364;-1.204;2023-07-08T12:01:32;18.05;;;8.98;;
19406;SDS011;9839;53.364;-1.204;2023-07-08T12:03:38;15.75;;;8.68;;
19406;SDS011;9839;53.364;-1.204;2023-07-08T12:07:06;33.70;;;9.63;;
19406;SDS011;9839;53.364;-1.204;2023-07-08T12:09:14;16.27;;;8.45;;
19406;SDS011;9839;53.364;-1.204;2023-07-08T12:11:47;13.35;;;7.65;;
19406;SDS011;9839;53.364;-1.204;2023-07-08T12:14:13;14.27;;;8.75;;
19406;SDS011;9839;53.364;-1.204;2023-07-08T12:16:39;17.67;;;10.38;;
19406;SDS011;9839;53.364;-1.204;2023-07-08T12:19:09;12.77;;;8.50;;
19406;SDS011;9839;53.364;-1.204;2023-07-08T12:21:36;13.18;;;8.60;;
19406;SDS011;9839;53.364;-1.204;2023-07-08T12:24:09;17.00;;;8.95;;
19406;SDS011;9839;53.364;-1.204;2023-07-08T12:26:37;12.55;;;8.30;;
19406;SDS011;9839;53.364;-1.204;2023-07-08T12:29:03;19.05;;;8.80;;
19406;SDS011;9839;53.364;-1.204;2023-07-08T12:31:28;15.10;;;8.98;;
19406;SDS011;9839;53.364;-1.204;2023-07-08T12:33:56;16.98;;;9.30;;
19406;SDS011;9839;53.364;-1.204;2023-07-08T12:36:24;13.48;;;8.52;;
19406;SDS011;9839;53.364;-1.204;2023-07-08T12:38:53;10.77;;;7.80;;
19406;SDS011;9839;53.364;-1.204;2023-07-08T12:41:21;74.30;;;17.80;;
19406;SDS011;9839;53.364;-1.204;2023-07-08T12:43:49;24.20;;;8.82;;
19406;SDS011;9839;53.364;-1.204;2023-07-08T12:46:16;16.70;;;8.27;;
19406;SDS011;9839;53.364;-1.204;2023-07-08T12:48:42;38.17;;;9.02;;
19406;SDS011;9839;53.364;-1.204;2023-07-08T12:51:12;13.82;;;7.78;;
19406;SDS011;9839;53.364;-1.204;2023-07-08T12:53:39;15.80;;;8.32;;
19406;SDS011;9839;53.364;-1.204;2023-07-08T12:56:05;117.75;;;17.98;;
19406;SDS011;9839;53.364;-1.204;2023-07-08T12:58:34;15.07;;;7.60;;
19406;SDS011;9839;53.364;-1.204;2023-07-08T13:01:07;17.75;;;7.82;;
19406;SDS011;9839;53.364;-1.204;2023-07-08T13:03:37;15.23;;;7.70;;
19406;SDS011;9839;53.364;-1.204;2023-07-08T13:06:06;13.00;;;7.50;;
19406;SDS011;9839;53.364;-1.204;2023-07-08T13:08:36;74.30;;;14.20;;
19406;SDS011;9839;53.364;-1.204;2023-07-08T13:11:03;70.85;;;13.02;;
19406;SDS011;9839;53.364;-1.204;2023-07-08T13:13:34;24.00;;;9.02;;
19406;SDS011;9839;53.364;-1.204;2023-07-08T13:16:00;15.32;;;8.13;;
19406;SDS011;9839;53.364;-1.204;2023-07-08T13:18:31;16.45;;;8.48;;
19406;SDS011;9839;53.364;-1.204;2023-07-08T13:21:01;15.20;;;7.55;;
19406;SDS011;9839;53.364;-1.204;2023-07-08T13:23:28;14.90;;;8.43;;
19406;SDS011;9839;53.364;-1.204;2023-07-08T13:25:54;18.80;;;8.82;;
19406;SDS011;9839;53.364;-1.204;2023-07-08T13:28:24;15.07;;;8.73;;
19406;SDS011;9839;53.364;-1.204;2023-07-08T13:31:18;18.17;;;9.57;;
19406;SDS011;9839;53.364;-1.204;2023-07-08T13:33:46;18.90;;;9.27;;
19406;SDS011;9839;53.364;-1.204;2023-07-08T13:36:23;19.48;;;8.45;;
19406;SDS011;9839;53.364;-1.204;2023-07-08T13:38:52;17.05;;;8.80;;
19406;SDS011;9839;53.364;-1.204;2023-07-08T13:41:19;16.73;;;8.98;;
19406;SDS011;9839;53.364;-1.204;2023-07-08T13:43:47;14.18;;;8.73;;
19406;SDS011;9839;53.364;-1.204;2023-07-08T13:46:28;18.08;;;8.90;;
19406;SDS011;9839;53.364;-1.204;2023-07-08T13:48:55;15.50;;;9.15;;
19406;SDS011;9839;53.364;-1.204;2023-07-08T13:51:22;14.73;;;7.20;;
19406;SDS011;9839;53.364;-1.204;2023-07-08T13:53:53;15.38;;;6.68;;
19406;SDS011;9839;53.364;-1.204;2023-07-08T13:56:31;13.25;;;6.32;;
19406;SDS011;9839;53.364;-1.204;2023-07-08T13:59:02;11.70;;;6.15;;
19406;SDS011;9839;53.364;-1.204;2023-07-08T14:01:28;10.02;;;6.10;;
19406;SDS011;9839;53.364;-1.204;2023-07-08T14:03:56;12.02;;;6.95;;
19406;SDS011;9839;53.364;-1.204;2023-07-08T14:06:23;14.57;;;8.50;;
19406;SDS011;9839;53.364;-1.204;2023-07-08T14:08:54;15.48;;;8.32;;
19406;SDS011;9839;53.364;-1.204;2023-07-08T14:11:20;25.58;;;8.10;;
19406;SDS011;9839;53.364;-1.204;2023-07-08T14:13:45;18.95;;;8.52;;
19406;SDS011;9839;53.364;-1.204;2023-07-08T14:16:45;11.13;;;7.40;;
19406;SDS011;9839;53.364;-1.204;2023-07-08T14:19:05;14.18;;;7.65;;
19406;SDS011;9839;53.364;-1.204;2023-07-08T14:21:32;12.88;;;7.35;;
19406;SDS011;9839;53.364;-1.204;2023-07-08T14:23:58;15.57;;;7.43;;
19406;SDS011;9839;53.364;-1.204;2023-07-08T14:26:24;12.00;;;7.38;;
19406;SDS011;9839;53.364;-1.204;2023-07-08T14:28:49;17.52;;;7.95;;
19406;SDS011;9839;53.364;-1.204;2023-07-08T14:31:16;19.08;;;8.93;;
19406;SDS011;9839;53.364;-1.204;2023-07-08T14:33:44;18.40;;;9.07;;
19406;SDS011;9839;53.364;-1.204;2023-07-08T14:36:10;14.32;;;8.40;;
19406;SDS011;9839;53.364;-1.204;2023-07-08T14:38:36;12.05;;;7.45;;
19406;SDS011;9839;53.364;-1.204;2023-07-08T14:41:02;13.38;;;7.88;;
19406;SDS011;9839;53.364;-1.204;2023-07-08T14:43:28;15.02;;;8.20;;
19406;SDS011;9839;53.364;-1.204;2023-07-08T14:46:04;25.58;;;8.30;;
19406;SDS011;9839;53.364;-1.204;2023-07-08T14:48:30;18.52;;;7.75;;
19406;SDS011;9839;53.364;-1.204;2023-07-08T14:50:56;32.95;;;11.07;;
19406;SDS011;9839;53.364;-1.204;2023-07-08T14:53:22;18.65;;;9.02;;
19406;SDS011;9839;53.364;-1.204;2023-07-08T14:55:49;13.80;;;8.07;;
19406;SDS011;9839;53.364;-1.204;2023-07-08T14:58:28;17.02;;;7.88;;
19406;SDS011;9839;53.364;-1.204;2023-07-08T15:00:54;11.63;;;6.65;;
19406;SDS011;9839;53.364;-1.204;2023-07-08T15:03:21;17.10;;;7.53;;
19406;SDS011;9839;53.364;-1.204;2023-07-08T15:05:48;21.20;;;9.68;;
19406;SDS011;9839;53.364;-1.204;2023-07-08T15:08:13;15.10;;;8.15;;
19406;SDS011;9839;53.364;-1.204;2023-07-08T15:10:39;15.88;;;7.78;;
19406;SDS011;9839;53.364;-1.204;2023-07-08T15:13:08;12.00;;;6.80;;
19406;SDS011;9839;53.364;-1.204;2023-07-08T15:15:34;14.32;;;8.07;;
19406;SDS011;9839;53.364;-1.204;2023-07-08T15:18:15;15.10;;;7.32;;
19406;SDS011;9839;53.364;-1.204;2023-07-08T15:20:41;13.98;;;6.78;;
19406;SDS011;9839;53.364;-1.204;2023-07-08T15:23:07;10.20;;;6.95;;
19406;SDS011;9839;53.364;-1.204;2023-07-08T15:25:34;10.52;;;4.32;;
19406;SDS011;9839;53.364;-1.204;2023-07-08T15:28:00;8.25;;;3.50;;
19406;SDS011;9839;53.364;-1.204;2023-07-08T15:30:27;7.32;;;3.38;;
19406;SDS011;9839;53.364;-1.204;2023-07-08T15:32:53;7.78;;;3.67;;
19406;SDS011;9839;53.364;-1.204;2023-07-08T15:35:24;9.95;;;3.83;;
19406;SDS011;9839;53.364;-1.204;2023-07-08T15:37:51;9.48;;;3.78;;
19406;SDS011;9839;53.364;-1.204;2023-07-08T15:40:18;7.53;;;3.05;;
19406;SDS011;9839;53.364;-1.204;2023-07-08T15:42:46;6.35;;;3.55;;
19406;SDS011;9839;53.364;-1.204;2023-07-08T15:47:48;9.68;;;4.22;;
19406;SDS011;9839;53.364;-1.204;2023-07-08T15:50:18;8.95;;;3.40;;
19406;SDS011;9839;53.364;-1.204;2023-07-08T15:52:45;9.27;;;3.33;;
19406;SDS011;9839;53.364;-1.204;2023-07-08T15:55:11;9.30;;;4.03;;